sensor_id;sensor_type;location;lat;lon;timestamp;P1;durP1;ratioP1;P2;durP2;ratioP2
54937;SDS011;52756;52.826;6.214;2023-03-01T00:01:19;9.37;;;8.27;;
54937;SDS011;52756;52.826;6.214;2023-03-01T00:03:46;9.73;;;8.43;;
54937;SDS011;52756;52.826;6.214;2023-03-01T00:06:12;11.67;;;8.90;;
54937;SDS011;52756;52.826;6.214;2023-03-01T00:08:38;10.73;;;8.20;;
54937;SDS011;52756;52.826;6.214;2023-03-01T00:11:11;10.33;;;8.90;;
54937;SDS011;52756;52.826;6.214;2023-03-01T00:13:41;12.13;;;8.50;;
54937;SDS011;52756;52.826;6.214;2023-03-01T00:16:08;11.30;;;8.43;;
54937;SDS011;52756;52.826;6.214;2023-03-01T00:18:36;11.30;;;8.57;;
54937;SDS011;52756;52.826;6.214;2023-03-01T00:21:01;9.00;;;7.70;;
54937;SDS011;52756;52.826;6.214;2023-03-01T00:23:27;9.60;;;7.90;;
54937;SDS011;52756;52.826;6.214;2023-03-01T00:25:53;9.93;;;7.77;;
54937;SDS011;52756;52.826;6.214;2023-03-01T00:28:19;10.63;;;8.30;;
54937;SDS011;52756;52.826;6.214;2023-03-01T00:30:45;10.20;;;7.30;;
54937;SDS011;52756;52.826;6.214;2023-03-01T00:33:11;9.73;;;8.43;;
54937;SDS011;52756;52.826;6.214;2023-03-01T00:35:37;9.33;;;7.87;;
54937;SDS011;52756;52.826;6.214;2023-03-01T00:38:03;11.30;;;8.63;;
54937;SDS011;52756;52.826;6.214;2023-03-01T00:40:29;11.20;;;9.00;;
54937;SDS011;52756;52.826;6.214;2023-03-01T00:42:57;12.03;;;9.50;;
54937;SDS011;52756;52.826;6.214;2023-03-01T00:45:22;10.10;;;8.57;;
54937;SDS011;52756;52.826;6.214;2023-03-01T00:47:49;10.30;;;8.70;;
54937;SDS011;52756;52.826;6.214;2023-03-01T00:50:16;11.07;;;8.97;;
54937;SDS011;52756;52.826;6.214;2023-03-01T00:52:43;9.97;;;8.10;;
54937;SDS011;52756;52.826;6.214;2023-03-01T00:55:09;11.90;;;8.77;;
54937;SDS011;52756;52.826;6.214;2023-03-01T00:57:35;14.03;;;10.03;;
54937;SDS011;52756;52.826;6.214;2023-03-01T01:00:01;12.17;;;9.30;;
54937;SDS011;52756;52.826;6.214;2023-03-01T01:02:29;10.87;;;9.10;;
54937;SDS011;52756;52.826;6.214;2023-03-01T01:04:56;10.50;;;8.60;;
54937;SDS011;52756;52.826;6.214;2023-03-01T01:07:22;10.23;;;8.50;;
54937;SDS011;52756;52.826;6.214;2023-03-01T01:09:48;12.43;;;8.13;;
54937;SDS011;52756;52.826;6.214;2023-03-01T01:12:13;9.83;;;8.83;;
54937;SDS011;52756;52.826;6.214;2023-03-01T01:14:39;10.40;;;8.03;;
54937;SDS011;52756;52.826;6.214;2023-03-01T01:17:05;11.93;;;8.50;;
54937;SDS011;52756;52.826;6.214;2023-03-01T01:19:30;9.47;;;8.33;;
54937;SDS011;52756;52.826;6.214;2023-03-01T01:21:56;11.00;;;8.57;;
54937;SDS011;52756;52.826;6.214;2023-03-01T01:24:22;11.00;;;8.40;;
54937;SDS011;52756;52.826;6.214;2023-03-01T01:26:48;11.27;;;8.73;;
54937;SDS011;52756;52.826;6.214;2023-03-01T01:29:13;10.47;;;9.30;;
54937;SDS011;52756;52.826;6.214;2023-03-01T01:31:40;11.57;;;8.83;;
54937;SDS011;52756;52.826;6.214;2023-03-01T01:34:08;10.17;;;8.50;;
54937;SDS011;52756;52.826;6.214;2023-03-01T01:36:38;13.40;;;9.03;;
54937;SDS011;52756;52.826;6.214;2023-03-01T01:39:04;10.53;;;8.97;;
54937;SDS011;52756;52.826;6.214;2023-03-01T01:41:30;10.57;;;8.43;;
54937;SDS011;52756;52.826;6.214;2023-03-01T01:47:01;11.03;;;8.97;;
54937;SDS011;52756;52.826;6.214;2023-03-01T01:49:30;10.27;;;8.30;;
54937;SDS011;52756;52.826;6.214;2023-03-01T01:54:41;10.47;;;8.93;;
54937;SDS011;52756;52.826;6.214;2023-03-01T01:57:13;12.90;;;9.60;;
54937;SDS011;52756;52.826;6.214;2023-03-01T01:59:50;14.77;;;10.90;;
54937;SDS011;52756;52.826;6.214;2023-03-01T02:02:19;15.83;;;9.77;;
54937;SDS011;52756;52.826;6.214;2023-03-01T02:04:46;15.17;;;11.63;;
54937;SDS011;52756;52.826;6.214;2023-03-01T02:07:19;13.00;;;9.47;;
54937;SDS011;52756;52.826;6.214;2023-03-01T02:09:48;11.80;;;9.47;;
54937;SDS011;52756;52.826;6.214;2023-03-01T02:12:18;14.47;;;10.50;;
54937;SDS011;52756;52.826;6.214;2023-03-01T02:14:46;15.53;;;11.63;;
54937;SDS011;52756;52.826;6.214;2023-03-01T02:17:12;12.87;;;10.83;;
54937;SDS011;52756;52.826;6.214;2023-03-01T02:19:53;13.93;;;10.90;;
54937;SDS011;52756;52.826;6.214;2023-03-01T02:22:38;16.03;;;11.27;;
54937;SDS011;52756;52.826;6.214;2023-03-01T02:30:30;15.60;;;10.90;;
54937;SDS011;52756;52.826;6.214;2023-03-01T02:32:57;18.40;;;12.37;;
54937;SDS011;52756;52.826;6.214;2023-03-01T02:35:32;27.90;;;16.20;;
54937;SDS011;52756;52.826;6.214;2023-03-01T02:38:02;24.80;;;14.50;;
54937;SDS011;52756;52.826;6.214;2023-03-01T02:40:31;37.80;;;20.03;;
54937;SDS011;52756;52.826;6.214;2023-03-01T02:43:00;44.13;;;24.40;;
54937;SDS011;52756;52.826;6.214;2023-03-01T02:45:28;30.13;;;17.77;;
54937;SDS011;52756;52.826;6.214;2023-03-01T02:47:54;26.93;;;17.53;;
54937;SDS011;52756;52.826;6.214;2023-03-01T02:52:56;25.70;;;14.73;;
54937;SDS011;52756;52.826;6.214;2023-03-01T02:55:26;21.67;;;14.97;;
54937;SDS011;52756;52.826;6.214;2023-03-01T02:57:52;21.10;;;14.40;;
54937;SDS011;52756;52.826;6.214;2023-03-01T03:00:21;24.07;;;14.30;;
54937;SDS011;52756;52.826;6.214;2023-03-01T03:02:51;22.00;;;15.07;;
54937;SDS011;52756;52.826;6.214;2023-03-01T03:05:22;22.60;;;15.40;;
54937;SDS011;52756;52.826;6.214;2023-03-01T03:07:51;29.30;;;14.23;;
54937;SDS011;52756;52.826;6.214;2023-03-01T03:10:18;16.63;;;12.83;;
54937;SDS011;52756;52.826;6.214;2023-03-01T03:12:50;16.57;;;12.30;;
54937;SDS011;52756;52.826;6.214;2023-03-01T03:15:22;17.90;;;13.50;;
54937;SDS011;52756;52.826;6.214;2023-03-01T03:17:48;15.83;;;12.60;;
54937;SDS011;52756;52.826;6.214;2023-03-01T03:20:16;19.23;;;13.27;;
54937;SDS011;52756;52.826;6.214;2023-03-01T03:22:47;15.47;;;12.07;;
54937;SDS011;52756;52.826;6.214;2023-03-01T03:25:14;12.53;;;10.60;;
54937;SDS011;52756;52.826;6.214;2023-03-01T03:27:41;15.63;;;12.57;;
54937;SDS011;52756;52.826;6.214;2023-03-01T03:30:12;19.43;;;11.63;;
54937;SDS011;52756;52.826;6.214;2023-03-01T03:32:41;16.00;;;11.07;;
54937;SDS011;52756;52.826;6.214;2023-03-01T03:35:17;13.57;;;10.73;;
54937;SDS011;52756;52.826;6.214;2023-03-01T03:37:44;11.97;;;10.23;;
54937;SDS011;52756;52.826;6.214;2023-03-01T03:40:29;11.27;;;10.00;;
54937;SDS011;52756;52.826;6.214;2023-03-01T03:43:01;11.07;;;9.93;;
54937;SDS011;52756;52.826;6.214;2023-03-01T03:45:32;12.07;;;10.30;;
54937;SDS011;52756;52.826;6.214;2023-03-01T03:47:58;10.90;;;9.80;;
54937;SDS011;52756;52.826;6.214;2023-03-01T03:50:25;14.23;;;10.70;;
54937;SDS011;52756;52.826;6.214;2023-03-01T03:52:51;12.93;;;11.33;;
54937;SDS011;52756;52.826;6.214;2023-03-01T03:55:17;12.63;;;10.77;;
54937;SDS011;52756;52.826;6.214;2023-03-01T03:57:45;12.93;;;11.03;;
54937;SDS011;52756;52.826;6.214;2023-03-01T04:00:19;11.77;;;10.47;;
54937;SDS011;52756;52.826;6.214;2023-03-01T04:02:48;11.80;;;10.40;;
54937;SDS011;52756;52.826;6.214;2023-03-01T04:05:16;11.93;;;10.17;;
54937;SDS011;52756;52.826;6.214;2023-03-01T04:07:43;11.53;;;10.33;;
54937;SDS011;52756;52.826;6.214;2023-03-01T04:10:10;11.97;;;10.50;;
54937;SDS011;52756;52.826;6.214;2023-03-01T04:12:38;12.87;;;11.07;;
54937;SDS011;52756;52.826;6.214;2023-03-01T04:15:04;13.13;;;11.00;;
54937;SDS011;52756;52.826;6.214;2023-03-01T04:17:47;10.93;;;9.05;;
54937;SDS011;52756;52.826;6.214;2023-03-01T04:22:42;12.77;;;10.77;;
54937;SDS011;52756;52.826;6.214;2023-03-01T04:25:11;12.60;;;11.30;;
54937;SDS011;52756;52.826;6.214;2023-03-01T04:27:39;11.90;;;10.40;;
54937;SDS011;52756;52.826;6.214;2023-03-01T04:30:06;12.40;;;11.00;;
54937;SDS011;52756;52.826;6.214;2023-03-01T04:32:32;12.67;;;10.53;;
54937;SDS011;52756;52.826;6.214;2023-03-01T04:34:58;14.23;;;12.63;;
54937;SDS011;52756;52.826;6.214;2023-03-01T04:37:24;14.20;;;12.50;;
54937;SDS011;52756;52.826;6.214;2023-03-01T04:39:50;13.40;;;12.00;;
54937;SDS011;52756;52.826;6.214;2023-03-01T04:42:17;13.80;;;11.80;;
54937;SDS011;52756;52.826;6.214;2023-03-01T04:44:43;13.57;;;11.20;;
54937;SDS011;52756;52.826;6.214;2023-03-01T04:47:09;12.60;;;11.23;;
54937;SDS011;52756;52.826;6.214;2023-03-01T04:49:35;13.93;;;11.73;;
54937;SDS011;52756;52.826;6.214;2023-03-01T04:52:01;13.63;;;11.80;;
54937;SDS011;52756;52.826;6.214;2023-03-01T04:54:33;13.93;;;11.80;;
54937;SDS011;52756;52.826;6.214;2023-03-01T04:56:59;14.47;;;12.37;;
54937;SDS011;52756;52.826;6.214;2023-03-01T04:59:25;14.33;;;12.63;;
54937;SDS011;52756;52.826;6.214;2023-03-01T05:01:52;13.77;;;11.40;;
54937;SDS011;52756;52.826;6.214;2023-03-01T05:04:22;12.67;;;11.00;;
54937;SDS011;52756;52.826;6.214;2023-03-01T05:06:48;13.23;;;11.67;;
54937;SDS011;52756;52.826;6.214;2023-03-01T05:09:14;12.57;;;11.00;;
54937;SDS011;52756;52.826;6.214;2023-03-01T05:11:40;13.57;;;11.10;;
54937;SDS011;52756;52.826;6.214;2023-03-01T05:14:06;13.57;;;11.47;;
54937;SDS011;52756;52.826;6.214;2023-03-01T05:16:33;14.23;;;11.63;;
54937;SDS011;52756;52.826;6.214;2023-03-01T05:19:01;13.60;;;11.50;;
54937;SDS011;52756;52.826;6.214;2023-03-01T05:21:37;13.47;;;11.13;;
54937;SDS011;52756;52.826;6.214;2023-03-01T05:24:26;12.77;;;11.03;;
54937;SDS011;52756;52.826;6.214;2023-03-01T05:26:53;12.87;;;11.33;;
54937;SDS011;52756;52.826;6.214;2023-03-01T05:29:19;12.40;;;10.90;;
54937;SDS011;52756;52.826;6.214;2023-03-01T05:31:56;12.50;;;11.20;;
54937;SDS011;52756;52.826;6.214;2023-03-01T05:34:24;13.20;;;11.50;;
54937;SDS011;52756;52.826;6.214;2023-03-01T05:36:51;12.20;;;10.40;;
54937;SDS011;52756;52.826;6.214;2023-03-01T05:39:19;12.90;;;11.50;;
54937;SDS011;52756;52.826;6.214;2023-03-01T05:41:46;12.27;;;10.97;;
54937;SDS011;52756;52.826;6.214;2023-03-01T05:44:12;12.53;;;10.57;;
54937;SDS011;52756;52.826;6.214;2023-03-01T05:46:38;13.57;;;11.37;;
54937;SDS011;52756;52.826;6.214;2023-03-01T05:49:04;13.73;;;11.83;;
54937;SDS011;52756;52.826;6.214;2023-03-01T05:51:30;16.13;;;12.10;;
54937;SDS011;52756;52.826;6.214;2023-03-01T05:53:56;13.80;;;11.07;;
54937;SDS011;52756;52.826;6.214;2023-03-01T05:56:21;12.70;;;11.17;;
54937;SDS011;52756;52.826;6.214;2023-03-01T05:58:48;13.23;;;10.83;;
54937;SDS011;52756;52.826;6.214;2023-03-01T06:01:14;12.57;;;10.60;;
54937;SDS011;52756;52.826;6.214;2023-03-01T06:03:40;13.10;;;10.10;;
54937;SDS011;52756;52.826;6.214;2023-03-01T06:06:06;11.00;;;9.83;;
54937;SDS011;52756;52.826;6.214;2023-03-01T06:08:32;12.07;;;10.83;;
54937;SDS011;52756;52.826;6.214;2023-03-01T06:10:57;12.43;;;10.10;;
54937;SDS011;52756;52.826;6.214;2023-03-01T06:13:23;12.47;;;10.30;;
54937;SDS011;52756;52.826;6.214;2023-03-01T06:15:49;11.60;;;9.77;;
54937;SDS011;52756;52.826;6.214;2023-03-01T06:18:15;11.90;;;10.23;;
54937;SDS011;52756;52.826;6.214;2023-03-01T06:20:41;12.47;;;10.60;;
54937;SDS011;52756;52.826;6.214;2023-03-01T06:23:06;11.77;;;10.57;;
54937;SDS011;52756;52.826;6.214;2023-03-01T06:25:32;11.60;;;10.40;;
54937;SDS011;52756;52.826;6.214;2023-03-01T06:27:58;10.83;;;9.60;;
54937;SDS011;52756;52.826;6.214;2023-03-01T06:30:24;12.23;;;9.80;;
54937;SDS011;52756;52.826;6.214;2023-03-01T06:32:51;11.60;;;10.33;;
54937;SDS011;52756;52.826;6.214;2023-03-01T06:35:17;11.43;;;9.73;;
54937;SDS011;52756;52.826;6.214;2023-03-01T06:37:44;11.30;;;9.70;;
54937;SDS011;52756;52.826;6.214;2023-03-01T06:40:10;11.67;;;10.03;;
54937;SDS011;52756;52.826;6.214;2023-03-01T06:42:39;11.53;;;10.13;;
54937;SDS011;52756;52.826;6.214;2023-03-01T06:45:06;11.03;;;9.80;;
54937;SDS011;52756;52.826;6.214;2023-03-01T06:47:33;11.33;;;9.77;;
54937;SDS011;52756;52.826;6.214;2023-03-01T06:49:59;11.13;;;9.80;;
54937;SDS011;52756;52.826;6.214;2023-03-01T06:52:25;12.33;;;10.37;;
54937;SDS011;52756;52.826;6.214;2023-03-01T06:54:51;11.73;;;9.90;;
54937;SDS011;52756;52.826;6.214;2023-03-01T06:57:17;11.70;;;9.90;;
54937;SDS011;52756;52.826;6.214;2023-03-01T06:59:43;12.53;;;9.70;;
54937;SDS011;52756;52.826;6.214;2023-03-01T07:02:12;11.57;;;10.13;;
54937;SDS011;52756;52.826;6.214;2023-03-01T07:04:39;12.90;;;10.90;;
54937;SDS011;52756;52.826;6.214;2023-03-01T07:07:04;12.93;;;10.13;;
54937;SDS011;52756;52.826;6.214;2023-03-01T07:09:30;12.33;;;10.20;;
54937;SDS011;52756;52.826;6.214;2023-03-01T07:11:56;12.23;;;10.17;;
54937;SDS011;52756;52.826;6.214;2023-03-01T07:14:22;13.43;;;11.03;;
54937;SDS011;52756;52.826;6.214;2023-03-01T07:16:51;12.90;;;10.53;;
54937;SDS011;52756;52.826;6.214;2023-03-01T07:19:18;13.60;;;11.43;;
54937;SDS011;52756;52.826;6.214;2023-03-01T07:21:44;14.53;;;11.97;;
54937;SDS011;52756;52.826;6.214;2023-03-01T07:24:09;12.50;;;10.83;;
54937;SDS011;52756;52.826;6.214;2023-03-01T07:26:35;14.33;;;12.07;;
54937;SDS011;52756;52.826;6.214;2023-03-01T07:29:03;17.13;;;13.43;;
54937;SDS011;52756;52.826;6.214;2023-03-01T07:31:30;14.50;;;12.33;;
54937;SDS011;52756;52.826;6.214;2023-03-01T07:33:56;14.60;;;11.67;;
54937;SDS011;52756;52.826;6.214;2023-03-01T07:36:21;15.43;;;12.43;;
54937;SDS011;52756;52.826;6.214;2023-03-01T07:38:47;15.20;;;12.37;;
54937;SDS011;52756;52.826;6.214;2023-03-01T07:41:13;16.30;;;12.97;;
54937;SDS011;52756;52.826;6.214;2023-03-01T07:43:39;13.67;;;12.17;;
54937;SDS011;52756;52.826;6.214;2023-03-01T07:46:05;16.43;;;12.67;;
54937;SDS011;52756;52.826;6.214;2023-03-01T07:48:32;16.73;;;12.67;;
54937;SDS011;52756;52.826;6.214;2023-03-01T07:50:59;15.97;;;11.73;;
54937;SDS011;52756;52.826;6.214;2023-03-01T07:53:25;16.47;;;13.10;;
54937;SDS011;52756;52.826;6.214;2023-03-01T07:56:04;16.93;;;13.03;;
54937;SDS011;52756;52.826;6.214;2023-03-01T07:58:30;16.90;;;13.60;;
54937;SDS011;52756;52.826;6.214;2023-03-01T08:00:56;16.17;;;13.17;;
54937;SDS011;52756;52.826;6.214;2023-03-01T08:03:26;17.07;;;13.17;;
54937;SDS011;52756;52.826;6.214;2023-03-01T08:05:51;15.83;;;13.17;;
54937;SDS011;52756;52.826;6.214;2023-03-01T08:08:17;16.43;;;13.73;;
54937;SDS011;52756;52.826;6.214;2023-03-01T08:10:42;20.20;;;15.27;;
54937;SDS011;52756;52.826;6.214;2023-03-01T08:13:08;18.70;;;14.10;;
54937;SDS011;52756;52.826;6.214;2023-03-01T08:15:34;20.43;;;16.13;;
54937;SDS011;52756;52.826;6.214;2023-03-01T08:17:59;21.60;;;15.57;;
54937;SDS011;52756;52.826;6.214;2023-03-01T08:20:25;19.77;;;15.90;;
54937;SDS011;52756;52.826;6.214;2023-03-01T08:22:51;20.20;;;16.07;;
54937;SDS011;52756;52.826;6.214;2023-03-01T08:25:17;20.43;;;14.80;;
54937;SDS011;52756;52.826;6.214;2023-03-01T08:27:42;20.10;;;14.87;;
54937;SDS011;52756;52.826;6.214;2023-03-01T08:30:08;20.13;;;16.43;;
54937;SDS011;52756;52.826;6.214;2023-03-01T08:32:35;18.97;;;15.13;;
54937;SDS011;52756;52.826;6.214;2023-03-01T08:35:02;20.38;;;16.65;;
54937;SDS011;52756;52.826;6.214;2023-03-01T08:37:28;21.10;;;15.80;;
54937;SDS011;52756;52.826;6.214;2023-03-01T08:39:56;21.92;;;16.60;;
54937;SDS011;52756;52.826;6.214;2023-03-01T08:42:22;23.05;;;17.33;;
54937;SDS011;52756;52.826;6.214;2023-03-01T08:44:47;19.27;;;16.05;;
54937;SDS011;52756;52.826;6.214;2023-03-01T08:47:13;20.70;;;17.10;;
54937;SDS011;52756;52.826;6.214;2023-03-01T08:49:39;20.27;;;15.85;;
54937;SDS011;52756;52.826;6.214;2023-03-01T08:52:05;19.38;;;16.77;;
54937;SDS011;52756;52.826;6.214;2023-03-01T08:54:30;20.63;;;16.77;;
54937;SDS011;52756;52.826;6.214;2023-03-01T08:56:56;23.00;;;18.40;;
54937;SDS011;52756;52.826;6.214;2023-03-01T08:59:24;21.23;;;17.80;;
54937;SDS011;52756;52.826;6.214;2023-03-01T09:01:50;20.63;;;17.55;;
54937;SDS011;52756;52.826;6.214;2023-03-01T09:04:16;23.58;;;18.80;;
54937;SDS011;52756;52.826;6.214;2023-03-01T09:06:41;22.30;;;17.60;;
54937;SDS011;52756;52.826;6.214;2023-03-01T09:09:10;21.35;;;16.92;;
54937;SDS011;52756;52.826;6.214;2023-03-01T09:11:40;27.92;;;21.27;;
54937;SDS011;52756;52.826;6.214;2023-03-01T09:14:05;26.75;;;21.25;;
54937;SDS011;52756;52.826;6.214;2023-03-01T09:16:32;24.50;;;18.77;;
54937;SDS011;52756;52.826;6.214;2023-03-01T09:19:01;29.20;;;22.60;;
54937;SDS011;52756;52.826;6.214;2023-03-01T09:21:27;31.23;;;22.80;;
54937;SDS011;52756;52.826;6.214;2023-03-01T09:23:53;25.17;;;20.48;;
54937;SDS011;52756;52.826;6.214;2023-03-01T09:26:21;28.70;;;21.27;;
54937;SDS011;52756;52.826;6.214;2023-03-01T09:28:48;26.30;;;20.90;;
54937;SDS011;52756;52.826;6.214;2023-03-01T09:31:15;28.20;;;22.15;;
54937;SDS011;52756;52.826;6.214;2023-03-01T09:33:45;27.48;;;21.55;;
54937;SDS011;52756;52.826;6.214;2023-03-01T09:36:12;27.95;;;20.75;;
54937;SDS011;52756;52.826;6.214;2023-03-01T09:38:40;27.55;;;20.85;;
54937;SDS011;52756;52.826;6.214;2023-03-01T09:41:09;27.30;;;18.63;;
54937;SDS011;52756;52.826;6.214;2023-03-01T09:43:57;26.98;;;20.58;;
54937;SDS011;52756;52.826;6.214;2023-03-01T09:46:29;25.85;;;20.35;;
54937;SDS011;52756;52.826;6.214;2023-03-01T09:49:09;26.27;;;19.67;;
54937;SDS011;52756;52.826;6.214;2023-03-01T09:51:42;20.27;;;16.40;;
54937;SDS011;52756;52.826;6.214;2023-03-01T09:54:12;21.77;;;16.73;;
54937;SDS011;52756;52.826;6.214;2023-03-01T09:56:46;24.80;;;19.52;;
54937;SDS011;52756;52.826;6.214;2023-03-01T09:59:35;19.15;;;14.95;;
54937;SDS011;52756;52.826;6.214;2023-03-01T10:05:13;21.30;;;16.55;;
54937;SDS011;52756;52.826;6.214;2023-03-01T10:10:37;20.02;;;14.85;;
54937;SDS011;52756;52.826;6.214;2023-03-01T10:13:27;17.27;;;13.30;;
54937;SDS011;52756;52.826;6.214;2023-03-01T10:15:54;19.05;;;13.95;;
54937;SDS011;52756;52.826;6.214;2023-03-01T10:18:30;17.13;;;12.38;;
54937;SDS011;52756;52.826;6.214;2023-03-01T10:21:07;16.98;;;12.75;;
54937;SDS011;52756;52.826;6.214;2023-03-01T10:23:38;15.13;;;12.07;;
54937;SDS011;52756;52.826;6.214;2023-03-01T10:28:44;15.93;;;10.85;;
54937;SDS011;52756;52.826;6.214;2023-03-01T10:31:27;13.32;;;9.82;;
54937;SDS011;52756;52.826;6.214;2023-03-01T10:34:38;17.75;;;13.63;;
54937;SDS011;52756;52.826;6.214;2023-03-01T10:39:54;15.50;;;11.63;;
54937;SDS011;52756;52.826;6.214;2023-03-01T10:42:22;15.35;;;11.45;;
54937;SDS011;52756;52.826;6.214;2023-03-01T10:44:52;17.45;;;11.60;;
54937;SDS011;52756;52.826;6.214;2023-03-01T10:49:55;14.93;;;10.60;;
54937;SDS011;52756;52.826;6.214;2023-03-01T10:52:41;14.98;;;10.30;;
54937;SDS011;52756;52.826;6.214;2023-03-01T10:55:24;15.55;;;10.60;;
54937;SDS011;52756;52.826;6.214;2023-03-01T10:58:21;16.23;;;11.43;;
54937;SDS011;52756;52.826;6.214;2023-03-01T11:03:24;16.75;;;12.82;;
54937;SDS011;52756;52.826;6.214;2023-03-01T11:05:54;16.75;;;12.05;;
54937;SDS011;52756;52.826;6.214;2023-03-01T11:08:32;14.68;;;11.73;;
54937;SDS011;52756;52.826;6.214;2023-03-01T11:13:54;16.60;;;11.77;;
54937;SDS011;52756;52.826;6.214;2023-03-01T11:16:41;14.90;;;10.75;;
54937;SDS011;52756;52.826;6.214;2023-03-01T11:21:34;17.63;;;11.43;;
54937;SDS011;52756;52.826;6.214;2023-03-01T11:24:04;14.80;;;11.15;;
54937;SDS011;52756;52.826;6.214;2023-03-01T11:26:36;12.50;;;9.63;;
54937;SDS011;52756;52.826;6.214;2023-03-01T11:32:08;15.10;;;9.63;;
54937;SDS011;52756;52.826;6.214;2023-03-01T11:34:38;17.10;;;11.00;;
54937;SDS011;52756;52.826;6.214;2023-03-01T11:37:28;13.90;;;10.07;;
54937;SDS011;52756;52.826;6.214;2023-03-01T11:43:01;15.50;;;10.82;;
54937;SDS011;52756;52.826;6.214;2023-03-01T11:48:31;18.52;;;11.65;;
54937;SDS011;52756;52.826;6.214;2023-03-01T11:51:24;19.27;;;12.77;;
54937;SDS011;52756;52.826;6.214;2023-03-01T11:56:39;15.13;;;10.85;;
54937;SDS011;52756;52.826;6.214;2023-03-01T12:02:34;14.60;;;11.05;;
54937;SDS011;52756;52.826;6.214;2023-03-01T12:08:08;15.20;;;10.80;;
54937;SDS011;52756;52.826;6.214;2023-03-01T12:10:48;14.18;;;11.07;;
54937;SDS011;52756;52.826;6.214;2023-03-01T12:16:30;14.20;;;10.98;;
54937;SDS011;52756;52.826;6.214;2023-03-01T12:19:13;17.42;;;11.82;;
54937;SDS011;52756;52.826;6.214;2023-03-01T12:22:01;16.42;;;12.13;;
54937;SDS011;52756;52.826;6.214;2023-03-01T12:27:26;16.40;;;12.20;;
54937;SDS011;52756;52.826;6.214;2023-03-01T12:30:34;16.38;;;11.48;;
54937;SDS011;52756;52.826;6.214;2023-03-01T12:38:33;18.05;;;12.15;;
54937;SDS011;52756;52.826;6.214;2023-03-01T12:50:13;13.45;;;10.32;;
54937;SDS011;52756;52.826;6.214;2023-03-01T12:52:47;13.43;;;10.18;;
54937;SDS011;52756;52.826;6.214;2023-03-01T12:57:53;12.23;;;8.75;;
54937;SDS011;52756;52.826;6.214;2023-03-01T13:00:45;14.90;;;10.02;;
54937;SDS011;52756;52.826;6.214;2023-03-01T13:06:12;18.65;;;12.65;;
54937;SDS011;52756;52.826;6.214;2023-03-01T13:08:59;12.88;;;10.32;;
54937;SDS011;52756;52.826;6.214;2023-03-01T13:11:41;15.82;;;11.63;;
54937;SDS011;52756;52.826;6.214;2023-03-01T13:16:46;16.63;;;11.27;;
54937;SDS011;52756;52.826;6.214;2023-03-01T13:21:48;14.40;;;11.20;;
54937;SDS011;52756;52.826;6.214;2023-03-01T13:29:49;16.17;;;11.30;;
54937;SDS011;52756;52.826;6.214;2023-03-01T13:34:47;19.75;;;12.40;;
54937;SDS011;52756;52.826;6.214;2023-03-01T13:37:19;15.48;;;11.63;;
54937;SDS011;52756;52.826;6.214;2023-03-01T13:42:47;15.18;;;10.98;;
54937;SDS011;52756;52.826;6.214;2023-03-01T13:45:36;16.30;;;11.93;;
54937;SDS011;52756;52.826;6.214;2023-03-01T13:48:08;17.02;;;12.50;;
54937;SDS011;52756;52.826;6.214;2023-03-01T13:50:48;15.07;;;10.68;;
54937;SDS011;52756;52.826;6.214;2023-03-01T13:55:59;14.85;;;10.63;;
54937;SDS011;52756;52.826;6.214;2023-03-01T13:58:31;15.37;;;11.10;;
54937;SDS011;52756;52.826;6.214;2023-03-01T14:01:07;15.43;;;11.27;;
54937;SDS011;52756;52.826;6.214;2023-03-01T14:03:50;16.25;;;12.00;;
54937;SDS011;52756;52.826;6.214;2023-03-01T14:06:17;17.17;;;12.02;;
54937;SDS011;52756;52.826;6.214;2023-03-01T14:08:48;16.70;;;12.00;;
54937;SDS011;52756;52.826;6.214;2023-03-01T14:19:19;18.23;;;13.63;;
54937;SDS011;52756;52.826;6.214;2023-03-01T14:21:58;17.50;;;12.90;;
54937;SDS011;52756;52.826;6.214;2023-03-01T14:24:29;16.85;;;12.80;;
54937;SDS011;52756;52.826;6.214;2023-03-01T14:26:58;15.95;;;11.88;;
54937;SDS011;52756;52.826;6.214;2023-03-01T14:29:36;15.50;;;11.90;;
54937;SDS011;52756;52.826;6.214;2023-03-01T14:32:18;19.70;;;13.65;;
54937;SDS011;52756;52.826;6.214;2023-03-01T14:34:46;18.73;;;13.48;;
54937;SDS011;52756;52.826;6.214;2023-03-01T14:37:27;16.13;;;11.63;;
54937;SDS011;52756;52.826;6.214;2023-03-01T14:39:55;16.17;;;11.48;;
54937;SDS011;52756;52.826;6.214;2023-03-01T14:42:22;16.02;;;11.93;;
54937;SDS011;52756;52.826;6.214;2023-03-01T14:44:50;15.65;;;11.07;;
54937;SDS011;52756;52.826;6.214;2023-03-01T14:47:28;15.73;;;11.57;;
54937;SDS011;52756;52.826;6.214;2023-03-01T14:49:58;16.38;;;11.23;;
54937;SDS011;52756;52.826;6.214;2023-03-01T14:52:30;14.82;;;11.25;;
54937;SDS011;52756;52.826;6.214;2023-03-01T14:54:59;18.65;;;12.15;;
54937;SDS011;52756;52.826;6.214;2023-03-01T14:57:28;17.75;;;12.52;;
54937;SDS011;52756;52.826;6.214;2023-03-01T14:59:54;16.75;;;12.50;;
54937;SDS011;52756;52.826;6.214;2023-03-01T15:02:24;18.45;;;12.73;;
54937;SDS011;52756;52.826;6.214;2023-03-01T15:04:52;14.32;;;11.70;;
54937;SDS011;52756;52.826;6.214;2023-03-01T15:07:26;18.60;;;13.13;;
54937;SDS011;52756;52.826;6.214;2023-03-01T15:09:57;18.48;;;14.02;;
54937;SDS011;52756;52.826;6.214;2023-03-01T15:14:52;18.08;;;12.95;;
54937;SDS011;52756;52.826;6.214;2023-03-01T15:17:34;16.13;;;12.68;;
54937;SDS011;52756;52.826;6.214;2023-03-01T15:20:03;17.10;;;12.40;;
54937;SDS011;52756;52.826;6.214;2023-03-01T15:22:31;12.32;;;8.85;;
54937;SDS011;52756;52.826;6.214;2023-03-01T15:24:57;13.57;;;10.57;;
54937;SDS011;52756;52.826;6.214;2023-03-01T15:27:23;13.05;;;9.57;;
54937;SDS011;52756;52.826;6.214;2023-03-01T15:29:55;13.38;;;10.65;;
54937;SDS011;52756;52.826;6.214;2023-03-01T15:32:26;17.75;;;11.48;;
54937;SDS011;52756;52.826;6.214;2023-03-01T15:35:01;10.73;;;8.90;;
54937;SDS011;52756;52.826;6.214;2023-03-01T15:37:58;10.55;;;8.57;;
54937;SDS011;52756;52.826;6.214;2023-03-01T15:40:29;13.38;;;9.65;;
54937;SDS011;52756;52.826;6.214;2023-03-01T15:42:58;13.57;;;9.15;;
54937;SDS011;52756;52.826;6.214;2023-03-01T15:45:26;14.02;;;10.45;;
54937;SDS011;52756;52.826;6.214;2023-03-01T15:50:29;11.93;;;9.57;;
54937;SDS011;52756;52.826;6.214;2023-03-01T15:53:01;13.30;;;9.43;;
54937;SDS011;52756;52.826;6.214;2023-03-01T15:55:36;14.63;;;10.13;;
54937;SDS011;52756;52.826;6.214;2023-03-01T15:58:21;12.13;;;9.50;;
54937;SDS011;52756;52.826;6.214;2023-03-01T16:00:49;13.68;;;9.48;;
54937;SDS011;52756;52.826;6.214;2023-03-01T16:03:20;14.25;;;10.07;;
54937;SDS011;52756;52.826;6.214;2023-03-01T16:05:47;12.27;;;9.23;;
54937;SDS011;52756;52.826;6.214;2023-03-01T16:08:15;12.77;;;9.70;;
54937;SDS011;52756;52.826;6.214;2023-03-01T16:10:41;13.07;;;9.60;;
54937;SDS011;52756;52.826;6.214;2023-03-01T16:13:10;13.07;;;9.77;;
54937;SDS011;52756;52.826;6.214;2023-03-01T16:15:36;15.32;;;10.45;;
54937;SDS011;52756;52.826;6.214;2023-03-01T16:18:03;14.38;;;10.23;;
54937;SDS011;52756;52.826;6.214;2023-03-01T16:20:30;13.40;;;10.65;;
54937;SDS011;52756;52.826;6.214;2023-03-01T16:23:00;12.32;;;9.77;;
54937;SDS011;52756;52.826;6.214;2023-03-01T16:25:28;12.95;;;10.40;;
54937;SDS011;52756;52.826;6.214;2023-03-01T16:27:54;13.82;;;11.02;;
54937;SDS011;52756;52.826;6.214;2023-03-01T16:30:21;14.82;;;11.13;;
54937;SDS011;52756;52.826;6.214;2023-03-01T16:32:48;15.18;;;10.60;;
54937;SDS011;52756;52.826;6.214;2023-03-01T16:35:16;13.73;;;10.07;;